sensor_id;sensor_type;location;lat;lon;timestamp;pressure;altitude;pressure_sealevel;temperature;humidity
52319;BME280;38258;51.148;14.068;2023-04-25T00:02:10;97464.00;;;4.96;100.00
52319;BME280;38258;51.148;14.068;2023-04-25T00:04:37;97455.81;;;4.74;100.00
52319;BME280;38258;51.148;14.068;2023-04-25T00:07:04;97459.19;;;4.77;100.00
52319;BME280;38258;51.148;14.068;2023-04-25T00:09:32;97458.78;;;4.53;100.00
52319;BME280;38258;51.148;14.068;2023-04-25T00:11:59;97459.16;;;4.33;100.00
52319;BME280;38258;51.148;14.068;2023-04-25T00:14:26;97463.47;;;4.33;100.00
52319;BME280;38258;51.148;14.068;2023-04-25T00:16:54;97456.66;;;4.27;100.00
52319;BME280;38258;51.148;14.068;2023-04-25T00:19:21;97456.25;;;4.02;100.00
52319;BME280;38258;51.148;14.068;2023-04-25T00:21:48;97460.59;;;4.00;100.00
52319;BME280;38258;51.148;14.068;2023-04-25T00:24:15;97466.06;;;3.82;100.00
52319;BME280;38258;51.148;14.068;2023-04-25T00:26:43;97453.81;;;3.92;100.00
52319;BME280;38258;51.148;14.068;2023-04-25T00:29:10;97462.75;;;3.73;100.00
52319;BME280;38258;51.148;14.068;2023-04-25T00:31:37;97464.41;;;3.77;100.00
52319;BME280;38258;51.148;14.068;2023-04-25T00:34:04;97454.81;;;3.84;100.00
52319;BME280;38258;51.148;14.068;2023-04-25T00:36:30;97454.06;;;3.78;100.00
52319;BME280;38258;51.148;14.068;2023-04-25T00:38:57;97461.50;;;3.97;100.00
52319;BME280;38258;51.148;14.068;2023-04-25T00:41:25;97463.50;;;3.81;100.00
52319;BME280;38258;51.148;14.068;2023-04-25T00:43:54;97450.84;;;3.62;100.00
52319;BME280;38258;51.148;14.068;2023-04-25T00:46:21;97458.53;;;3.67;100.00
52319;BME280;38258;51.148;14.068;2023-04-25T00:48:47;97453.47;;;3.61;100.00
52319;BME280;38258;51.148;14.068;2023-04-25T00:51:16;97457.66;;;3.70;100.00
52319;BME280;38258;51.148;14.068;2023-04-25T00:53:46;97458.78;;;3.51;100.00
52319;BME280;38258;51.148;14.068;2023-04-25T00:56:13;97459.41;;;3.66;100.00
52319;BME280;38258;51.148;14.068;2023-04-25T00:58:41;97451.41;;;3.80;100.00
52319;BME280;38258;51.148;14.068;2023-04-25T01:01:10;97463.13;;;4.03;100.00
52319;BME280;38258;51.148;14.068;2023-04-25T01:03:38;97455.16;;;4.15;100.00
52319;BME280;38258;51.148;14.068;2023-04-25T01:06:07;97452.59;;;4.14;100.00
52319;BME280;38258;51.148;14.068;2023-04-25T01:08:34;97430.81;;;3.75;100.00
52319;BME280;38258;51.148;14.068;2023-04-25T01:11:00;97440.94;;;3.89;100.00
52319;BME280;38258;51.148;14.068;2023-04-25T01:13:27;97448.13;;;3.70;100.00
52319;BME280;38258;51.148;14.068;2023-04-25T01:15:54;97444.72;;;3.70;100.00
52319;BME280;38258;51.148;14.068;2023-04-25T01:18:22;97448.19;;;3.68;100.00
52319;BME280;38258;51.148;14.068;2023-04-25T01:20:51;97434.75;;;3.43;100.00
52319;BME280;38258;51.148;14.068;2023-04-25T01:23:21;97441.03;;;3.28;100.00
52319;BME280;38258;51.148;14.068;2023-04-25T01:25:49;97456.41;;;3.36;100.00
52319;BME280;38258;51.148;14.068;2023-04-25T01:28:17;97449.72;;;3.21;100.00
52319;BME280;38258;51.148;14.068;2023-04-25T01:30:44;97452.44;;;3.11;100.00
52319;BME280;38258;51.148;14.068;2023-04-25T01:33:13;97448.28;;;3.01;100.00
52319;BME280;38258;51.148;14.068;2023-04-25T01:35:40;97445.88;;;2.84;100.00
52319;BME280;38258;51.148;14.068;2023-04-25T01:38:07;97450.25;;;2.80;100.00
52319;BME280;38258;51.148;14.068;2023-04-25T01:40:38;97446.91;;;2.72;100.00
52319;BME280;38258;51.148;14.068;2023-04-25T01:43:07;97441.06;;;2.58;100.00
52319;BME280;38258;51.148;14.068;2023-04-25T01:45:37;97443.72;;;2.48;100.00
52319;BME280;38258;51.148;14.068;2023-04-25T01:48:05;97439.66;;;2.30;100.00
52319;BME280;38258;51.148;14.068;2023-04-25T01:50:32;97441.34;;;2.30;100.00
52319;BME280;38258;51.148;14.068;2023-04-25T01:52:59;97425.13;;;2.18;100.00
52319;BME280;38258;51.148;14.068;2023-04-25T01:55:27;97446.56;;;2.26;100.00
52319;BME280;38258;51.148;14.068;2023-04-25T01:58:06;97446.63;;;2.17;100.00
52319;BME280;38258;51.148;14.068;2023-04-25T02:00:53;97450.16;;;2.08;100.00
52319;BME280;38258;51.148;14.068;2023-04-25T02:03:20;97436.38;;;2.09;100.00
52319;BME280;38258;51.148;14.068;2023-04-25T02:05:47;97432.97;;;2.06;100.00
52319;BME280;38258;51.148;14.068;2023-04-25T02:08:15;97442.50;;;2.02;100.00
52319;BME280;38258;51.148;14.068;2023-04-25T02:10:42;97440.91;;;1.87;100.00
52319;BME280;38258;51.148;14.068;2023-04-25T02:13:16;97440.13;;;1.76;100.00
52319;BME280;38258;51.148;14.068;2023-04-25T02:15:56;97434.94;;;1.82;100.00
52319;BME280;38258;51.148;14.068;2023-04-25T02:18:23;97441.03;;;1.72;100.00
52319;BME280;38258;51.148;14.068;2023-04-25T02:20:51;97446.19;;;1.72;100.00
52319;BME280;38258;51.148;14.068;2023-04-25T02:23:19;97435.91;;;1.67;100.00
52319;BME280;38258;51.148;14.068;2023-04-25T02:25:46;97435.19;;;1.51;100.00
52319;BME280;38258;51.148;14.068;2023-04-25T02:28:24;97435.16;;;1.52;100.00
52319;BME280;38258;51.148;14.068;2023-04-25T02:31:06;97439.41;;;1.57;100.00
52319;BME280;38258;51.148;14.068;2023-04-25T02:33:33;97435.16;;;1.52;100.00
52319;BME280;38258;51.148;14.068;2023-04-25T02:36:00;97435.19;;;1.49;100.00
52319;BME280;38258;51.148;14.068;2023-04-25T02:38:27;97434.34;;;1.47;100.00
52319;BME280;38258;51.148;14.068;2023-04-25T02:40:55;97436.06;;;1.47;100.00
52319;BME280;38258;51.148;14.068;2023-04-25T02:43:28;97436.03;;;1.53;100.00
52319;BME280;38258;51.148;14.068;2023-04-25T02:45:55;97436.81;;;1.57;100.00
52319;BME280;38258;51.148;14.068;2023-04-25T02:48:22;97427.34;;;1.62;100.00
52319;BME280;38258;51.148;14.068;2023-04-25T02:50:49;97431.66;;;1.61;100.00
52319;BME280;38258;51.148;14.068;2023-04-25T02:53:15;97429.91;;;1.65;100.00
52319;BME280;38258;51.148;14.068;2023-04-25T02:55:47;97435.16;;;1.52;100.00
52319;BME280;38258;51.148;14.068;2023-04-25T02:58:13;97435.19;;;1.51;100.00
52319;BME280;38258;51.148;14.068;2023-04-25T03:00:46;97430.94;;;1.45;100.00
52319;BME280;38258;51.148;14.068;2023-04-25T03:03:14;97431.03;;;1.28;100.00
52319;BME280;38258;51.148;14.068;2023-04-25T03:05:43;97433.69;;;1.14;100.00
52319;BME280;38258;51.148;14.068;2023-04-25T03:08:10;97429.47;;;1.04;100.00
52319;BME280;38258;51.148;14.068;2023-04-25T03:10:38;97434.56;;;1.10;100.00
52319;BME280;38258;51.148;14.068;2023-04-25T03:13:07;97434.59;;;1.07;100.00
52319;BME280;38258;51.148;14.068;2023-04-25T03:15:35;97423.41;;;1.12;100.00
52319;BME280;38258;51.148;14.068;2023-04-25T03:18:03;97423.41;;;1.06;100.00
52319;BME280;38258;51.148;14.068;2023-04-25T03:20:30;97424.31;;;1.04;100.00
52319;BME280;38258;51.148;14.068;2023-04-25T03:22:57;97417.47;;;0.96;100.00
52319;BME280;38258;51.148;14.068;2023-04-25T03:25:24;97426.03;;;1.03;100.00
52319;BME280;38258;51.148;14.068;2023-04-25T03:27:50;97420.88;;;0.98;100.00
52319;BME280;38258;51.148;14.068;2023-04-25T03:30:17;97426.97;;;0.91;100.00
52319;BME280;38258;51.148;14.068;2023-04-25T03:32:44;97424.34;;;0.93;100.00
52319;BME280;38258;51.148;14.068;2023-04-25T03:35:16;97420.91;;;1.00;100.00
52319;BME280;38258;51.148;14.068;2023-04-25T03:37:43;97419.19;;;0.93;100.00
52319;BME280;38258;51.148;14.068;2023-04-25T03:40:14;97426.09;;;0.92;100.00
52319;BME280;38258;51.148;14.068;2023-04-25T03:43:00;97421.81;;;0.90;100.00
52319;BME280;38258;51.148;14.068;2023-04-25T03:45:27;97426.91;;;0.97;100.00
52319;BME280;38258;51.148;14.068;2023-04-25T03:47:53;97426.06;;;1.02;100.00
52319;BME280;38258;51.148;14.068;2023-04-25T03:50:22;97424.25;;;1.16;100.00
52319;BME280;38258;51.148;14.068;2023-04-25T03:52:48;97418.84;;;1.49;100.00
52319;BME280;38258;51.148;14.068;2023-04-25T03:55:15;97423.16;;;1.48;100.00
52319;BME280;38258;51.148;14.068;2023-04-25T03:57:43;97421.56;;;1.29;100.00
52319;BME280;38258;51.148;14.068;2023-04-25T04:00:11;97422.44;;;1.29;100.00
52319;BME280;38258;51.148;14.068;2023-04-25T04:02:41;97420.72;;;1.30;100.00
52319;BME280;38258;51.148;14.068;2023-04-25T04:05:09;97416.47;;;1.24;100.00
52319;BME280;38258;51.148;14.068;2023-04-25T04:07:42;97419.97;;;1.15;100.00
52319;BME280;38258;51.148;14.068;2023-04-25T04:10:10;97426.00;;;1.08;100.00
52319;BME280;38258;51.148;14.068;2023-04-25T04:12:39;97429.41;;;1.13;100.00
52319;BME280;38258;51.148;14.068;2023-04-25T04:15:06;97433.53;;;1.39;100.00
52319;BME280;38258;51.148;14.068;2023-04-25T04:17:34;97427.34;;;1.62;100.00
52319;BME280;38258;51.148;14.068;2023-04-25T04:20:01;97427.88;;;2.01;100.00
52319;BME280;38258;51.148;14.068;2023-04-25T04:22:30;97430.34;;;2.12;100.00
52319;BME280;38258;51.148;14.068;2023-04-25T04:25:02;97432.00;;;2.19;100.00
52319;BME280;38258;51.148;14.068;2023-04-25T04:27:50;97434.47;;;2.30;100.00
52319;BME280;38258;51.148;14.068;2023-04-25T04:30:38;97439.34;;;2.57;100.00
52319;BME280;38258;51.148;14.068;2023-04-25T04:33:07;97439.06;;;2.81;100.00
52319;BME280;38258;51.148;14.068;2023-04-25T04:35:34;97436.13;;;3.06;100.00
52319;BME280;38258;51.148;14.068;2023-04-25T04:38:01;97448.06;;;3.15;100.00
52319;BME280;38258;51.148;14.068;2023-04-25T04:40:33;97443.66;;;3.22;100.00
52319;BME280;38258;51.148;14.068;2023-04-25T04:43:07;97446.09;;;3.34;100.00
52319;BME280;38258;51.148;14.068;2023-04-25T04:45:38;97439.22;;;3.33;100.00
52319;BME280;38258;51.148;14.068;2023-04-25T04:48:26;97432.28;;;3.35;100.00
52319;BME280;38258;51.148;14.068;2023-04-25T04:51:23;97448.31;;;3.58;100.00
52319;BME280;38258;51.148;14.068;2023-04-25T04:54:02;97443.25;;;3.53;100.00
52319;BME280;38258;51.148;14.068;2023-04-25T04:56:46;97440.16;;;3.84;100.00
52319;BME280;38258;51.148;14.068;2023-04-25T04:59:39;97447.72;;;3.96;100.00
52319;BME280;38258;51.148;14.068;2023-04-25T05:02:26;97431.31;;;3.98;100.00
52319;BME280;38258;51.148;14.068;2023-04-25T05:05:19;97433.72;;;4.08;100.00
52319;BME280;38258;51.148;14.068;2023-04-25T05:08:08;97445.50;;;4.25;100.00
52319;BME280;38258;51.148;14.068;2023-04-25T05:11:10;97439.19;;;4.40;100.00
52319;BME280;38258;51.148;14.068;2023-04-25T05:13:52;97444.16;;;4.52;100.00
52319;BME280;38258;51.148;14.068;2023-04-25T05:16:45;97409.84;;;4.39;100.00
52319;BME280;38258;51.148;14.068;2023-04-25T05:19:32;97448.88;;;4.76;100.00
52319;BME280;38258;51.148;14.068;2023-04-25T05:22:19;97442.47;;;4.92;100.00
52319;BME280;38258;51.148;14.068;2023-04-25T05:24:56;97426.06;;;4.92;100.00
52319;BME280;38258;51.148;14.068;2023-04-25T05:27:32;97442.06;;;5.13;100.00
52319;BME280;38258;51.148;14.068;2023-04-25T05:30:20;97431.78;;;5.09;100.00
52319;BME280;38258;51.148;14.068;2023-04-25T05:33:06;97432.25;;;5.27;100.00
52319;BME280;38258;51.148;14.068;2023-04-25T05:35:33;97434.84;;;5.26;100.00
52319;BME280;38258;51.148;14.068;2023-04-25T05:38:00;97440.94;;;5.24;100.00
52319;BME280;38258;51.148;14.068;2023-04-25T05:40:50;97445.94;;;5.32;100.00
52319;BME280;38258;51.148;14.068;2023-04-25T05:43:37;97443.22;;;5.38;100.00
52319;BME280;38258;51.148;14.068;2023-04-25T05:46:22;97446.53;;;5.45;100.00
52319;BME280;38258;51.148;14.068;2023-04-25T05:49:14;97447.31;;;5.49;100.00
52319;BME280;38258;51.148;14.068;2023-04-25T05:51:53;97450.41;;;5.63;100.00
52319;BME280;38258;51.148;14.068;2023-04-25T05:54:40;97448.16;;;5.49;100.00
52319;BME280;38258;51.148;14.068;2023-04-25T05:57:07;97450.75;;;5.49;100.00
52319;BME280;38258;51.148;14.068;2023-04-25T05:59:33;97450.72;;;5.51;100.00
52319;BME280;38258;51.148;14.068;2023-04-25T06:02:02;97455.84;;;5.54;100.00
52319;BME280;38258;51.148;14.068;2023-04-25T06:04:32;97454.63;;;5.69;100.00
52319;BME280;38258;51.148;14.068;2023-04-25T06:07:00;97461.56;;;5.69;100.00
52319;BME280;38258;51.148;14.068;2023-04-25T06:09:26;97454.50;;;5.75;100.00
52319;BME280;38258;51.148;14.068;2023-04-25T06:11:53;97457.72;;;5.84;100.00
52319;BME280;38258;51.148;14.068;2023-04-25T06:14:20;97445.91;;;5.72;100.00
52319;BME280;38258;51.148;14.068;2023-04-25T06:16:49;97458.31;;;5.97;100.00
52319;BME280;38258;51.148;14.068;2023-04-25T06:19:17;97449.22;;;5.78;100.00
52319;BME280;38258;51.148;14.068;2023-04-25T06:21:44;97437.47;;;6.00;100.00
52319;BME280;38258;51.148;14.068;2023-04-25T06:24:11;97452.91;;;6.06;100.00
52319;BME280;38258;51.148;14.068;2023-04-25T06:26:38;97457.09;;;6.12;100.00
52319;BME280;38258;51.148;14.068;2023-04-25T06:29:05;97457.88;;;6.15;100.00
52319;BME280;38258;51.148;14.068;2023-04-25T06:31:32;97461.56;;;6.05;100.00
52319;BME280;38258;51.148;14.068;2023-04-25T06:33:59;97452.81;;;6.09;100.00
52319;BME280;38258;51.148;14.068;2023-04-25T06:36:29;97457.06;;;6.13;100.00
52319;BME280;38258;51.148;14.068;2023-04-25T06:39:03;97458.69;;;6.16;100.00
52319;BME280;38258;51.148;14.068;2023-04-25T06:41:32;97439.81;;;6.09;100.00
52319;BME280;38258;51.148;14.068;2023-04-25T06:44:01;97453.00;;;6.36;100.00
52319;BME280;38258;51.148;14.068;2023-04-25T06:46:47;97452.97;;;6.38;100.00
52319;BME280;38258;51.148;14.068;2023-04-25T06:49:14;97455.38;;;6.44;100.00
52319;BME280;38258;51.148;14.068;2023-04-25T06:51:43;97457.56;;;6.59;100.00
52319;BME280;38258;51.148;14.068;2023-04-25T06:54:09;97455.81;;;6.61;100.00
52319;BME280;38258;51.148;14.068;2023-04-25T06:56:48;97441.47;;;6.46;100.00
52319;BME280;38258;51.148;14.068;2023-04-25T06:59:15;97454.69;;;6.70;100.00
52319;BME280;38258;51.148;14.068;2023-04-25T07:01:44;97455.50;;;6.72;100.00
52319;BME280;38258;51.148;14.068;2023-04-25T07:04:17;97452.66;;;6.82;100.00
52319;BME280;38258;51.148;14.068;2023-04-25T07:06:57;97457.22;;;7.03;100.00
52319;BME280;38258;51.148;14.068;2023-04-25T07:09:44;97458.03;;;7.05;100.00
52319;BME280;38258;51.148;14.068;2023-04-25T07:12:10;97464.75;;;7.43;100.00
52319;BME280;38258;51.148;14.068;2023-04-25T07:14:37;97464.31;;;7.28;100.00
52319;BME280;38258;51.148;14.068;2023-04-25T07:17:04;97463.22;;;7.35;100.00
52319;BME280;38258;51.148;14.068;2023-04-25T07:19:32;97461.78;;;7.55;100.00
52319;BME280;38258;51.148;14.068;2023-04-25T07:22:02;97465.97;;;7.59;100.00
52319;BME280;38258;51.148;14.068;2023-04-25T07:24:30;97442.16;;;7.99;100.00
52319;BME280;38258;51.148;14.068;2023-04-25T07:26:57;97449.66;;;7.54;100.00
52319;BME280;38258;51.148;14.068;2023-04-25T07:29:28;97469.50;;;7.28;100.00
52319;BME280;38258;51.148;14.068;2023-04-25T07:31:58;97472.97;;;7.57;100.00
52319;BME280;38258;51.148;14.068;2023-04-25T07:34:24;97476.81;;;7.74;100.00
52319;BME280;38258;51.148;14.068;2023-04-25T07:36:51;97469.19;;;7.68;100.00
52319;BME280;38258;51.148;14.068;2023-04-25T07:39:21;97475.22;;;7.97;100.00
52319;BME280;38258;51.148;14.068;2023-04-25T07:41:48;97457.69;;;8.02;100.00
52319;BME280;38258;51.148;14.068;2023-04-25T07:44:21;97471.69;;;8.25;100.00
52319;BME280;38258;51.148;14.068;2023-04-25T07:46:48;97462.88;;;8.80;100.00
52319;BME280;38258;51.148;14.068;2023-04-25T07:49:15;97464.06;;;8.45;100.00
52319;BME280;38258;51.148;14.068;2023-04-25T07:51:43;97464.44;;;8.60;100.00
52319;BME280;38258;51.148;14.068;2023-04-25T07:54:14;97466.28;;;8.82;98.28
52319;BME280;38258;51.148;14.068;2023-04-25T07:56:46;97477.69;;;9.03;94.68
52319;BME280;38258;51.148;14.068;2023-04-25T07:59:13;97473.69;;;9.40;95.46
52319;BME280;38258;51.148;14.068;2023-04-25T08:01:41;97436.19;;;8.22;97.89
52319;BME280;38258;51.148;14.068;2023-04-25T08:04:10;97473.59;;;8.72;100.00
52319;BME280;38258;51.148;14.068;2023-04-25T08:06:56;97458.19;;;8.39;100.00
52319;BME280;38258;51.148;14.068;2023-04-25T08:09:29;97481.22;;;8.26;100.00
52319;BME280;38258;51.148;14.068;2023-04-25T08:12:01;97479.75;;;8.17;100.00
52319;BME280;38258;51.148;14.068;2023-04-25T08:14:31;97492.06;;;8.13;100.00
52319;BME280;38258;51.148;14.068;2023-04-25T08:17:02;97486.47;;;9.24;100.00
52319;BME280;38258;51.148;14.068;2023-04-25T08:19:30;97477.22;;;9.39;94.29
52319;BME280;38258;51.148;14.068;2023-04-25T08:21:57;97478.41;;;9.76;94.43
52319;BME280;38258;51.148;14.068;2023-04-25T08:24:31;97488.25;;;9.24;98.92
52319;BME280;38258;51.148;14.068;2023-04-25T08:26:58;97490.41;;;8.09;100.00
52319;BME280;38258;51.148;14.068;2023-04-25T08:29:28;97500.03;;;7.80;100.00
52319;BME280;38258;51.148;14.068;2023-04-25T08:31:55;97493.03;;;8.36;100.00
52319;BME280;38258;51.148;14.068;2023-04-25T08:34:22;97491.81;;;9.89;90.89
52319;BME280;38258;51.148;14.068;2023-04-25T08:36:49;97488.91;;;10.18;85.61
52319;BME280;38258;51.148;14.068;2023-04-25T08:39:22;97493.72;;;10.51;84.64
52319;BME280;38258;51.148;14.068;2023-04-25T08:42:07;97481.44;;;10.31;85.99
52319;BME280;38258;51.148;14.068;2023-04-25T08:44:36;97500.97;;;9.33;90.69
52319;BME280;38258;51.148;14.068;2023-04-25T08:47:04;97501.34;;;8.98;93.76
52319;BME280;38258;51.148;14.068;2023-04-25T08:49:34;97504.06;;;9.43;97.99
52319;BME280;38258;51.148;14.068;2023-04-25T08:52:03;97508.09;;;9.04;94.26
52319;BME280;38258;51.148;14.068;2023-04-25T08:54:32;97518.78;;;8.45;96.17
52319;BME280;38258;51.148;14.068;2023-04-25T08:57:01;97507.91;;;8.85;98.37
52319;BME280;38258;51.148;14.068;2023-04-25T08:59:29;97517.03;;;9.44;96.89
52319;BME280;38258;51.148;14.068;2023-04-25T09:01:58;97522.72;;;9.78;91.86
52319;BME280;38258;51.148;14.068;2023-04-25T09:04:24;97507.19;;;9.29;91.62
52319;BME280;38258;51.148;14.068;2023-04-25T09:06:51;97531.97;;;8.68;95.44
52319;BME280;38258;51.148;14.068;2023-04-25T09:09:18;97533.81;;;8.37;100.00
52319;BME280;38258;51.148;14.068;2023-04-25T09:11:44;97530.41;;;8.62;100.00
52319;BME280;38258;51.148;14.068;2023-04-25T09:14:14;97510.41;;;9.59;96.70
52319;BME280;38258;51.148;14.068;2023-04-25T09:17:03;97519.19;;;10.24;92.63
52319;BME280;38258;51.148;14.068;2023-04-25T09:19:36;97522.19;;;9.92;88.38
52319;BME280;38258;51.148;14.068;2023-04-25T09:22:08;97536.22;;;8.70;95.26
52319;BME280;38258;51.148;14.068;2023-04-25T09:24:37;97547.00;;;8.59;99.92
52319;BME280;38258;51.148;14.068;2023-04-25T09:27:05;97548.63;;;8.35;100.00
52319;BME280;38258;51.148;14.068;2023-04-25T09:29:33;97546.50;;;8.48;100.00
52319;BME280;38258;51.148;14.068;2023-04-25T09:32:16;97556.56;;;8.32;100.00
52319;BME280;38258;51.148;14.068;2023-04-25T09:34:46;97552.28;;;8.29;99.95
52319;BME280;38258;51.148;14.068;2023-04-25T09:37:20;97551.06;;;8.14;100.00
52319;BME280;38258;51.148;14.068;2023-04-25T09:40:19;97562.63;;;8.32;100.00
52319;BME280;38258;51.148;14.068;2023-04-25T09:43:01;97558.06;;;7.84;100.00
52319;BME280;38258;51.148;14.068;2023-04-25T09:45:29;97566.59;;;7.59;100.00
52319;BME280;38258;51.148;14.068;2023-04-25T09:48:03;97572.31;;;7.42;100.00
52319;BME280;38258;51.148;14.068;2023-04-25T09:50:31;97564.06;;;7.27;100.00
52319;BME280;38258;51.148;14.068;2023-04-25T09:53:06;97570.00;;;7.31;100.00
52319;BME280;38258;51.148;14.068;2023-04-25T09:55:49;97566.59;;;7.29;100.00
52319;BME280;38258;51.148;14.068;2023-04-25T09:58:16;97577.09;;;7.86;100.00
52319;BME280;38258;51.148;14.068;2023-04-25T10:00:43;97567.44;;;8.18;100.00
52319;BME280;38258;51.148;14.068;2023-04-25T10:03:24;97540.72;;;8.65;100.00
52319;BME280;38258;51.148;14.068;2023-04-25T10:06:07;97541.03;;;8.83;94.89
52319;BME280;38258;51.148;14.068;2023-04-25T10:08:36;97559.88;;;9.15;89.48
52319;BME280;38258;51.148;14.068;2023-04-25T10:11:04;97556.81;;;9.03;92.97
52319;BME280;38258;51.148;14.068;2023-04-25T10:13:32;97556.81;;;8.78;97.89
52319;BME280;38258;51.148;14.068;2023-04-25T10:16:00;97586.09;;;8.59;100.00
52319;BME280;38258;51.148;14.068;2023-04-25T10:18:29;97585.03;;;8.11;100.00
52319;BME280;38258;51.148;14.068;2023-04-25T10:20:58;97587.03;;;8.01;100.00
52319;BME280;38258;51.148;14.068;2023-04-25T10:23:26;97577.59;;;7.39;100.00
52319;BME280;38258;51.148;14.068;2023-04-25T10:25:54;97565.94;;;7.52;100.00
52319;BME280;38258;51.148;14.068;2023-04-25T10:28:21;97587.44;;;8.44;100.00
52319;BME280;38258;51.148;14.068;2023-04-25T10:30:57;97597.72;;;8.20;100.00
52319;BME280;38258;51.148;14.068;2023-04-25T10:33:36;97566.59;;;8.71;100.00
52319;BME280;38258;51.148;14.068;2023-04-25T10:36:11;97589.03;;;8.50;100.00
52319;BME280;38258;51.148;14.068;2023-04-25T10:38:38;97590.66;;;9.05;100.00
52319;BME280;38258;51.148;14.068;2023-04-25T10:41:06;97578.03;;;9.18;98.63
52319;BME280;38258;51.148;14.068;2023-04-25T10:43:36;97593.06;;;8.59;100.00
52319;BME280;38258;51.148;14.068;2023-04-25T10:46:13;97587.16;;;8.25;100.00
52319;BME280;38258;51.148;14.068;2023-04-25T10:48:46;97587.72;;;8.35;100.00
52319;BME280;38258;51.148;14.068;2023-04-25T10:51:20;97596.06;;;8.73;99.98
52319;BME280;38258;51.148;14.068;2023-04-25T10:53:47;97552.47;;;7.96;98.17
52319;BME280;38258;51.148;14.068;2023-04-25T10:56:24;97580.59;;;8.69;97.47
52319;BME280;38258;51.148;14.068;2023-04-25T10:59:03;97594.13;;;8.53;99.10
52319;BME280;38258;51.148;14.068;2023-04-25T11:01:36;97595.56;;;8.62;100.00
52319;BME280;38258;51.148;14.068;2023-04-25T11:04:05;97597.34;;;8.61;99.70
52319;BME280;38258;51.148;14.068;2023-04-25T11:09:23;97600.06;;;8.30;100.00
52319;BME280;38258;51.148;14.068;2023-04-25T11:11:53;97594.44;;;8.15;100.00
52319;BME280;38258;51.148;14.068;2023-04-25T11:14:20;97592.16;;;8.31;100.00
52319;BME280;38258;51.148;14.068;2023-04-25T11:16:52;97584.81;;;8.17;100.00
52319;BME280;38258;51.148;14.068;2023-04-25T11:19:20;97615.91;;;7.93;100.00
52319;BME280;38258;51.148;14.068;2023-04-25T11:21:47;97592.03;;;7.79;100.00
52319;BME280;38258;51.148;14.068;2023-04-25T11:24:15;97611.97;;;7.50;100.00
52319;BME280;38258;51.148;14.068;2023-04-25T11:26:43;97613.41;;;7.60;100.00
52319;BME280;38258;51.148;14.068;2023-04-25T11:29:09;97618.88;;;7.51;100.00
52319;BME280;38258;51.148;14.068;2023-04-25T11:31:36;97623.81;;;7.29;100.00
52319;BME280;38258;51.148;14.068;2023-04-25T11:34:03;97641.44;;;6.84;100.00
52319;BME280;38258;51.148;14.068;2023-04-25T11:36:31;97635.91;;;6.63;100.00
52319;BME280;38258;51.148;14.068;2023-04-25T11:38:58;97647.94;;;6.68;100.00
52319;BME280;38258;51.148;14.068;2023-04-25T11:41:25;97632.56;;;6.58;100.00
52319;BME280;38258;51.148;14.068;2023-04-25T11:43:52;97645.44;;;6.63;100.00
52319;BME280;38258;51.148;14.068;2023-04-25T11:46:19;97652.50;;;6.58;100.00
52319;BME280;38258;51.148;14.068;2023-04-25T11:48:46;97658.66;;;6.54;100.00
52319;BME280;38258;51.148;14.068;2023-04-25T11:51:13;97667.31;;;6.53;100.00
52319;BME280;38258;51.148;14.068;2023-04-25T11:53:42;97666.75;;;6.77;100.00
52319;BME280;38258;51.148;14.068;2023-04-25T11:56:11;97666.50;;;6.50;100.00
52319;BME280;38258;51.148;14.068;2023-04-25T11:58:57;97658.91;;;6.79;100.00
52319;BME280;38258;51.148;14.068;2023-04-25T12:01:28;97670.09;;;6.46;100.00
52319;BME280;38258;51.148;14.068;2023-04-25T12:03:55;97668.81;;;6.99;100.00
52319;BME280;38258;51.148;14.068;2023-04-25T12:06:26;97665.75;;;7.16;100.00
52319;BME280;38258;51.148;14.068;2023-04-25T12:09:07;97671.50;;;7.29;100.00
52319;BME280;38258;51.148;14.068;2023-04-25T12:11:40;97675.16;;;7.55;100.00
52319;BME280;38258;51.148;14.068;2023-04-25T12:14:07;97652.09;;;6.75;100.00
52319;BME280;38258;51.148;14.068;2023-04-25T12:16:41;97671.75;;;6.85;100.00
52319;BME280;38258;51.148;14.068;2023-04-25T12:19:08;97676.25;;;6.78;100.00
52319;BME280;38258;51.148;14.068;2023-04-25T12:21:35;97658.81;;;6.84;100.00
52319;BME280;38258;51.148;14.068;2023-04-25T12:24:14;97669.00;;;7.26;100.00
52319;BME280;38258;51.148;14.068;2023-04-25T12:26:46;97672.16;;;7.69;100.00
52319;BME280;38258;51.148;14.068;2023-04-25T12:29:16;97668.56;;;7.73;100.00
52319;BME280;38258;51.148;14.068;2023-04-25T12:31:43;97669.22;;;8.69;100.00
52319;BME280;38258;51.148;14.068;2023-04-25T12:34:10;97678.34;;;8.25;100.00
52319;BME280;38258;51.148;14.068;2023-04-25T12:36:37;97671.47;;;7.94;100.00
52319;BME280;38258;51.148;14.068;2023-04-25T12:39:04;97675.84;;;7.62;100.00
52319;BME280;38258;51.148;14.068;2023-04-25T12:41:32;97679.16;;;7.67;100.00
52319;BME280;38258;51.148;14.068;2023-04-25T12:43:59;97676.72;;;7.29;100.00
52319;BME280;38258;51.148;14.068;2023-04-25T12:46:25;97685.97;;;7.06;100.00
52319;BME280;38258;51.148;14.068;2023-04-25T12:48:52;97680.53;;;7.16;100.00
52319;BME280;38258;51.148;14.068;2023-04-25T12:51:20;97685.94;;;7.08;100.00
52319;BME280;38258;51.148;14.068;2023-04-25T12:53:50;97681.06;;;6.94;100.00
52319;BME280;38258;51.148;14.068;2023-04-25T12:56:17;97681.09;;;7.27;100.00
52319;BME280;38258;51.148;14.068;2023-04-25T12:58:46;97632.81;;;7.17;100.00
52319;BME280;38258;51.148;14.068;2023-04-25T13:01:13;97661.47;;;7.48;100.00
52319;BME280;38258;51.148;14.068;2023-04-25T13:03:40;97670.91;;;7.51;100.00
52319;BME280;38258;51.148;14.068;2023-04-25T13:06:07;97641.72;;;7.71;100.00
52319;BME280;38258;51.148;14.068;2023-04-25T13:08:34;97671.22;;;8.02;100.00
52319;BME280;38258;51.148;14.068;2023-04-25T13:11:02;97674.06;;;8.53;100.00
52319;BME280;38258;51.148;14.068;2023-04-25T13:13:29;97676.94;;;8.43;98.30